Time;durP1;ratioP1;P1;durP2;ratioP2;P2;SDS_P1;SDS_P2;PMS_P1;PMS_P2;Temp;Humidity;BMP_temperature;BMP_pressure;BME280_temperature;BME280_humidity;BME280_pressure;Samples;Min_cycle;Max_cycle;Signal;HPM_P1;HPM_P2
2023/06/07 00:02:15;;;;;;;6.15;3.58;;;20.90;84.30;;;;;;10906281;32;20042;-76
2023/06/07 00:08:18;;;;;;;8.85;5.72;;;20.80;84.30;;;;;;10906428;32;20023;-75
2023/06/07 00:14:20;;;;;;;7.22;4.55;;;20.70;84.40;;;;;;10908369;32;20053;-76
2023/06/07 00:20:22;;;;;;;9.35;4.90;;;20.80;84.60;;;;;;10907446;32;20042;-76
2023/06/07 00:26:25;;;;;;;8.13;5.55;;;20.80;84.60;;;;;;10919965;32;20023;-76
2023/06/07 00:32:28;;;;;;;6.53;4.10;;;20.80;84.50;;;;;;10945727;32;20037;-76
2023/06/07 00:38:30;;;;;;;5.25;3.75;;;20.70;84.50;;;;;;10944638;32;20034;-76
2023/06/07 00:44:32;;;;;;;6.87;5.37;;;20.70;84.60;;;;;;10944319;32;20378;-76
2023/06/07 00:50:34;;;;;;;8.95;5.28;;;20.70;84.60;;;;;;10944189;32;20045;-76
2023/06/07 00:56:36;;;;;;;7.53;4.87;;;20.60;84.50;;;;;;10944709;32;20411;-76
2023/06/07 01:02:39;;;;;;;6.00;3.45;;;20.70;84.60;;;;;;10942067;32;20050;-76
2023/06/07 01:08:43;;;;;;;5.95;3.92;;;20.70;84.60;;;;;;10944188;32;20385;-76
2023/06/07 01:14:47;;;;;;;7.30;5.32;;;20.60;84.70;;;;;;10943852;32;20089;-76
2023/06/07 01:20:55;;;;;;;7.32;4.87;;;20.60;84.60;;;;;;10943970;32;20057;-76
2023/06/07 01:26:59;;;;;;;6.03;4.60;;;20.60;84.60;;;;;;10942288;32;20353;-76
2023/06/07 01:33:03;;;;;;;4.72;3.58;;;20.50;84.60;;;;;;10942872;32;20023;-76
2023/06/07 01:39:07;;;;;;;8.75;5.70;;;20.50;84.80;;;;;;10943518;32;20431;-77
2023/06/07 01:45:10;;;;;;;7.15;4.90;;;20.50;84.80;;;;;;10941131;32;20046;-76
2023/06/07 01:51:15;;;;;;;6.62;4.78;;;20.50;84.70;;;;;;10943375;32;20015;-76
2023/06/07 01:57:29;;;;;;;11.20;5.87;;;20.50;84.70;;;;;;10938567;32;20333;-76
2023/06/07 02:03:43;;;;;;;8.63;6.00;;;20.50;85.00;;;;;;10942413;32;20329;-76
2023/06/07 02:09:47;;;;;;;10.20;6.22;;;20.50;85.20;;;;;;10943421;32;20018;-76
2023/06/07 02:15:49;;;;;;;12.50;8.43;;;20.50;85.10;;;;;;10943210;32;20062;-76
2023/06/07 02:21:51;;;;;;;13.35;6.60;;;20.50;85.10;;;;;;10942503;32;20023;-76
2023/06/07 02:27:53;;;;;;;12.90;8.68;;;20.50;85.00;;;;;;10927436;32;20030;-76
2023/06/07 02:33:55;;;;;;;10.32;7.47;;;20.60;84.90;;;;;;10939216;32;20019;-76
2023/06/07 02:39:58;;;;;;;13.85;8.23;;;20.50;84.90;;;;;;10941640;32;20329;-76
2023/06/07 02:46:00;;;;;;;11.50;9.27;;;20.50;84.90;;;;;;10941305;32;20038;-76
2023/06/07 02:52:07;;;;;;;14.32;8.40;;;20.50;84.90;;;;;;10941513;32;20067;-76
2023/06/07 02:58:09;;;;;;;12.07;8.75;;;20.50;84.90;;;;;;10940184;32;20062;-76
2023/06/07 03:04:12;;;;;;;10.77;8.30;;;20.50;84.90;;;;;;10939671;32;20361;-76
2023/06/07 03:10:14;;;;;;;11.85;8.23;;;20.50;84.90;;;;;;10947315;32;20027;-76
2023/06/07 03:16:16;;;;;;;11.27;9.27;;;20.50;84.90;;;;;;10947747;32;20054;-77
2023/06/07 03:22:21;;;;;;;12.25;8.63;;;20.50;85.00;;;;;;10948085;32;20019;-76
2023/06/07 03:28:23;;;;;;;10.38;6.97;;;20.50;85.00;;;;;;10946125;32;20039;-76
2023/06/07 03:34:29;;;;;;;10.48;6.05;;;20.40;85.00;;;;;;10946644;32;20015;-76
2023/06/07 03:40:33;;;;;;;9.70;6.35;;;20.50;85.00;;;;;;10947559;32;20031;-76
2023/06/07 03:46:35;;;;;;;10.18;7.55;;;20.40;84.90;;;;;;10946283;32;20397;-76
2023/06/07 03:52:39;;;;;;;10.18;7.35;;;20.40;85.00;;;;;;10946076;32;20022;-76
2023/06/07 03:59:04;;;;;;;12.45;7.82;;;20.40;85.10;;;;;;10946333;32;20049;-76
2023/06/07 04:05:07;;;;;;;8.07;6.65;;;20.40;85.00;;;;;;10946166;32;20389;-76
2023/06/07 04:11:09;;;;;;;8.73;6.15;;;20.40;85.00;;;;;;10945375;32;20054;-76
2023/06/07 04:17:11;;;;;;;10.45;6.55;;;20.40;85.00;;;;;;10944640;32;20053;-77
2023/06/07 04:23:14;;;;;;;10.55;8.07;;;20.50;85.10;;;;;;10944851;32;20307;-77
2023/06/07 04:29:20;;;;;;;10.85;7.78;;;20.50;85.10;;;;;;10944516;32;20027;-76
2023/06/07 04:35:23;;;;;;;10.63;6.65;;;20.60;85.10;;;;;;10944166;32;20022;-77
2023/06/07 04:41:30;;;;;;;13.48;6.85;;;20.60;85.00;;;;;;10943950;32;20061;-77
2023/06/07 04:47:32;;;;;;;10.55;5.72;;;20.70;85.00;;;;;;10943188;32;20015;-77
2023/06/07 04:53:36;;;;;;;10.13;6.65;;;20.70;85.10;;;;;;10942924;32;20019;-77
2023/06/07 04:59:42;;;;;;;9.77;7.55;;;20.80;85.20;;;;;;10942177;32;20034;-77
2023/06/07 05:05:46;;;;;;;9.93;5.47;;;20.80;85.20;;;;;;10940306;32;20054;-77
2023/06/07 05:11:48;;;;;;;7.30;5.07;;;20.80;85.10;;;;;;10938740;32;20046;-77
2023/06/07 05:17:51;;;;;;;8.48;5.60;;;20.70;85.30;;;;;;10940310;32;20401;-77
2023/06/07 05:23:53;;;;;;;10.20;7.43;;;20.80;85.30;;;;;;10938636;32;20030;-77
2023/06/07 05:29:55;;;;;;;5.68;4.28;;;20.90;85.20;;;;;;10941014;32;20023;-76
2023/06/07 05:35:58;;;;;;;7.97;5.07;;;21.00;85.00;;;;;;10939426;32;20388;-75
2023/06/07 05:42:03;;;;;;;8.25;5.30;;;21.00;85.00;;;;;;10927942;32;20034;-74
2023/06/07 05:48:05;;;;;;;11.57;6.82;;;21.10;84.90;;;;;;10936701;32;20019;-74
2023/06/07 05:54:08;;;;;;;12.63;8.20;;;21.30;85.00;;;;;;10900763;32;20026;-74
2023/06/07 06:00:11;;;;;;;10.88;5.57;;;21.30;85.30;;;;;;10903667;32;20049;-73
2023/06/07 06:06:17;;;;;;;6.43;4.37;;;21.30;85.30;;;;;;10903470;32;20011;-74
2023/06/07 06:12:19;;;;;;;22.77;6.87;;;21.40;85.10;;;;;;10902663;32;20387;-76
2023/06/07 06:18:21;;;;;;;6.30;3.95;;;21.50;85.20;;;;;;10917870;32;20409;-75
2023/06/07 06:24:23;;;;;;;8.50;5.45;;;21.60;85.30;;;;;;10940005;32;20019;-74
2023/06/07 06:30:27;;;;;;;7.80;5.78;;;21.70;85.60;;;;;;10936429;32;20053;-78
2023/06/07 06:36:29;;;;;;;7.85;4.57;;;21.80;85.70;;;;;;10933696;32;20409;-74
2023/06/07 06:42:31;;;;;;;8.80;5.43;;;21.80;85.70;;;;;;10932681;32;20011;-74
2023/06/07 06:48:37;;;;;;;10.32;7.40;;;21.80;85.60;;;;;;10946814;32;20031;-77
2023/06/07 06:54:39;;;;;;;8.00;4.72;;;21.90;85.30;;;;;;10947920;32;20011;-75
2023/06/07 07:00:41;;;;;;;7.10;4.03;;;22.00;85.40;;;;;;10945489;32;20027;-74
2023/06/07 07:06:44;;;;;;;5.85;3.40;;;22.20;85.40;;;;;;10945098;32;20420;-75
2023/06/07 07:12:47;;;;;;;5.75;3.37;;;22.30;85.60;;;;;;10943600;32;20015;-73
2023/06/07 07:18:50;;;;;;;6.35;4.43;;;22.30;85.10;;;;;;10944291;32;20058;-73
2023/06/07 07:24:54;;;;;;;7.62;5.25;;;22.30;85.00;;;;;;10952272;27;20030;-72
2023/06/07 07:30:56;;;;;;;7.82;4.37;;;22.40;84.70;;;;;;10968833;32;20041;-72
2023/06/07 07:37:02;;;;;;;6.70;4.22;;;22.40;84.60;;;;;;10968553;32;20112;-72
2023/06/07 07:43:04;;;;;;;5.37;3.33;;;22.60;84.40;;;;;;10969998;32;20038;-72
2023/06/07 07:49:05;;;;;;;16.98;3.17;;;22.80;83.90;;;;;;10983519;32;20041;-72
2023/06/07 07:55:08;;;;;;;7.47;4.60;;;22.60;83.80;;;;;;10982217;32;20018;-74
2023/06/07 08:01:10;;;;;;;7.50;4.28;;;22.50;84.00;;;;;;10969630;32;20073;-73
2023/06/07 08:07:15;;;;;;;6.05;3.58;;;22.40;84.10;;;;;;10982413;32;20026;-73
2023/06/07 08:13:18;;;;;;;5.90;3.50;;;22.30;84.40;;;;;;10981850;32;20023;-72
2023/06/07 08:19:20;;;;;;;5.93;3.87;;;22.40;84.00;;;;;;10983476;32;20057;-74
2023/06/07 08:25:22;;;;;;;8.15;3.80;;;22.50;83.70;;;;;;10983026;32;20018;-73
2023/06/07 08:31:26;;;;;;;3.72;2.08;;;22.80;83.10;;;;;;10982430;32;20022;-73
2023/06/07 08:37:29;;;;;;;3.40;2.20;;;23.00;82.40;;;;;;10981437;32;20349;-72
2023/06/07 08:43:31;;;;;;;3.70;2.65;;;22.90;82.60;;;;;;10981846;32;20022;-74
2023/06/07 08:49:34;;;;;;;3.83;2.03;;;22.90;82.50;;;;;;10982654;32;20007;-74
2023/06/07 08:55:37;;;;;;;3.12;2.12;;;23.00;82.20;;;;;;10979531;32;20052;-74
2023/06/07 09:01:39;;;;;;;3.30;1.77;;;23.40;81.80;;;;;;10980801;32;20023;-73
2023/06/07 09:07:42;;;;;;;7.15;3.95;;;23.60;80.50;;;;;;10966052;32;20022;-77
2023/06/07 09:13:45;;;;;;;7.93;3.47;;;23.80;80.00;;;;;;10981801;32;20061;-75
2023/06/07 09:19:47;;;;;;;3.55;2.45;;;24.00;80.10;;;;;;10976244;32;20026;-73
2023/06/07 09:25:53;;;;;;;4.40;3.42;;;24.20;79.60;;;;;;10977014;32;20041;-76
2023/06/07 09:31:57;;;;;;;3.87;2.15;;;24.40;79.50;;;;;;10980146;32;20030;-74
2023/06/07 09:38:00;;;;;;;4.45;1.83;;;24.60;78.60;;;;;;10978403;32;20026;-73
2023/06/07 09:44:03;;;;;;;7.12;3.87;;;24.80;77.60;;;;;;10976270;32;20046;-77
2023/06/07 09:50:10;;;;;;;8.27;2.12;;;25.10;77.20;;;;;;10976983;32;20041;-73
2023/06/07 09:56:17;;;;;;;6.37;2.77;;;25.10;76.80;;;;;;10961340;32;20405;-73
2023/06/07 10:02:27;;;;;;;6.28;3.28;;;25.20;75.50;;;;;;10979923;32;20014;-73
2023/06/07 10:08:29;;;;;;;3.67;2.33;;;25.30;74.50;;;;;;10966205;32;20107;-76
2023/06/07 10:14:32;;;;;;;2.87;1.83;;;25.40;74.50;;;;;;10967446;32;20431;-73
2023/06/07 10:20:38;;;;;;;8.05;2.83;;;25.50;73.80;;;;;;10987724;32;20014;-73
2023/06/07 10:26:40;;;;;;;3.05;1.65;;;25.70;73.60;;;;;;10987702;32;20053;-75
2023/06/07 10:32:44;;;;;;;2.80;1.37;;;26.00;72.80;;;;;;10986217;32;20038;-72
2023/06/07 10:38:46;;;;;;;5.60;2.05;;;26.10;72.20;;;;;;10987513;32;20035;-73
2023/06/07 10:44:49;;;;;;;3.67;1.80;;;26.20;71.60;;;;;;10985703;32;20018;-73
2023/06/07 10:50:51;;;;;;;2.25;1.33;;;26.30;70.90;;;;;;10987066;32;20027;-73
2023/06/07 10:56:53;;;;;;;4.00;1.98;;;26.50;70.10;;;;;;10983323;32;20404;-74
2023/06/07 11:03:16;;;;;;;2.60;1.52;;;26.80;69.10;;;;;;10985792;32;20042;-73
2023/06/07 11:09:19;;;;;;;1.35;1.15;;;26.90;69.10;;;;;;10986712;32;20336;-73
2023/06/07 11:15:30;;;;;;;4.62;1.58;;;27.00;69.70;;;;;;10984408;32;20015;-73
2023/06/07 11:21:57;;;;;;;1.65;1.20;;;27.20;68.30;;;;;;10982498;32;20036;-75
2023/06/07 11:28:00;;;;;;;3.00;1.75;;;27.40;67.60;;;;;;10980420;32;20405;-73
2023/06/07 11:34:02;;;;;;;9.95;1.37;;;27.70;66.60;;;;;;10970093;32;20057;-73
2023/06/07 11:40:07;;;;;;;3.08;1.80;;;27.80;66.40;;;;;;10984794;32;20393;-73
2023/06/07 11:46:14;;;;;;;2.65;1.33;;;28.00;65.70;;;;;;10983755;32;20014;-74
2023/06/07 11:52:19;;;;;;;1.60;1.08;;;28.10;65.70;;;;;;10984268;32;20041;-73
2023/06/07 11:58:22;;;;;;;2.25;0.98;;;28.10;65.40;;;;;;10967710;32;20448;-73
2023/06/07 12:04:25;;;;;;;2.20;1.50;;;28.30;65.10;;;;;;10984305;32;20002;-73
2023/06/07 12:10:31;;;;;;;1.55;1.00;;;28.10;64.70;;;;;;10964726;32;20037;-73
2023/06/07 12:16:37;;;;;;;2.10;1.37;;;27.90;65.00;;;;;;10983699;32;20010;-73
2023/06/07 12:22:40;;;;;;;2.08;1.23;;;27.90;65.30;;;;;;10968277;32;20049;-73
2023/06/07 12:28:43;;;;;;;1.35;1.02;;;27.60;66.30;;;;;;10982172;32;20045;-74
2023/06/07 12:34:45;;;;;;;2.70;1.55;;;27.70;66.70;;;;;;10969289;32;20041;-76
2023/06/07 12:40:48;;;;;;;1.98;1.30;;;27.30;67.90;;;;;;10981979;32;20046;-74
2023/06/07 12:46:50;;;;;;;2.95;1.35;;;27.40;67.40;;;;;;10982134;32;20019;-74
2023/06/07 12:52:52;;;;;;;1.35;0.93;;;27.80;65.90;;;;;;10963760;32;20034;-75
2023/06/07 12:58:54;;;;;;;1.37;1.00;;;28.10;64.60;;;;;;10980636;32;20022;-72
2023/06/07 13:04:57;;;;;;;3.08;1.35;;;28.10;64.20;;;;;;10981888;32;20069;-72
2023/06/07 13:10:59;;;;;;;2.15;1.23;;;28.10;63.50;;;;;;10980638;32;20027;-73
2023/06/07 13:17:01;;;;;;;2.85;1.40;;;28.30;63.30;;;;;;10966752;32;20037;-73
2023/06/07 13:23:03;;;;;;;2.40;1.42;;;28.30;62.70;;;;;;10981537;32;20041;-72
2023/06/07 13:29:05;;;;;;;1.12;0.80;;;28.20;62.40;;;;;;10966731;32;20019;-72
2023/06/07 13:35:08;;;;;;;0.93;0.88;;;28.20;62.90;;;;;;10965576;32;20023;-72
2023/06/07 13:41:10;;;;;;;1.12;0.88;;;28.20;62.70;;;;;;10977467;32;20044;-74
2023/06/07 13:47:12;;;;;;;1.62;1.12;;;28.20;62.20;;;;;;10980533;32;20041;-72
2023/06/07 13:53:17;;;;;;;1.45;0.88;;;28.10;61.60;;;;;;10964853;32;20337;-73
2023/06/07 13:59:19;;;;;;;2.28;1.55;;;28.20;62.50;;;;;;10964255;32;20049;-72
2023/06/07 14:05:21;;;;;;;1.50;0.93;;;28.20;62.70;;;;;;10980483;32;20045;-73
2023/06/07 14:11:25;;;;;;;3.87;0.90;;;28.30;62.10;;;;;;10966877;32;20010;-73
2023/06/07 14:17:27;;;;;;;1.20;0.62;;;28.30;61.40;;;;;;10980651;32;20027;-73
2023/06/07 14:23:29;;;;;;;2.25;0.95;;;28.40;61.20;;;;;;10975948;32;20045;-73
2023/06/07 14:29:32;;;;;;;1.92;0.65;;;28.30;61.20;;;;;;10964868;32;20082;-73
2023/06/07 14:35:34;;;;;;;0.95;0.70;;;28.00;61.60;;;;;;10966339;32;20015;-73
2023/06/07 14:41:36;;;;;;;6.28;1.40;;;28.00;61.70;;;;;;10967060;32;20295;-76
2023/06/07 14:47:39;;;;;;;1.58;0.82;;;28.00;61.90;;;;;;10979487;32;20348;-73
2023/06/07 14:53:41;;;;;;;0.62;0.55;;;28.10;62.20;;;;;;10979597;32;20072;-73
2023/06/07 14:59:43;;;;;;;5.60;2.03;;;28.00;61.70;;;;;;10975864;32;20018;-73
2023/06/07 15:05:45;;;;;;;3.03;1.25;;;27.80;62.10;;;;;;10985960;32;20393;-74
2023/06/07 15:11:47;;;;;;;1.83;1.33;;;27.80;63.00;;;;;;10985709;32;20034;-74
2023/06/07 15:17:49;;;;;;;3.62;2.33;;;27.70;63.60;;;;;;10985112;32;20396;-74
2023/06/07 15:23:51;;;;;;;3.92;2.35;;;27.60;64.20;;;;;;10983920;32;20022;-74
2023/06/07 15:29:53;;;;;;;2.72;1.73;;;27.60;64.40;;;;;;11007303;27;20064;-74
2023/06/07 15:35:55;;;;;;;2.90;1.87;;;27.70;64.60;;;;;;11022638;32;20022;-74
2023/06/07 15:41:59;;;;;;;6.05;2.97;;;27.70;64.80;;;;;;11022928;32;20044;-72
2023/06/07 15:48:02;;;;;;;3.47;2.50;;;27.60;64.90;;;;;;11003902;32;20197;-71
2023/06/07 15:54:04;;;;;;;4.57;2.45;;;27.60;65.30;;;;;;10984591;32;20010;-72
2023/06/07 16:00:07;;;;;;;3.22;1.85;;;27.50;65.60;;;;;;10984414;32;20027;-71
2023/06/07 16:06:38;;;;;;;4.60;2.90;;;27.40;65.80;;;;;;10981963;32;20041;-71
2023/06/07 16:12:40;;;;;;;3.47;2.05;;;27.30;66.10;;;;;;10982266;32;20010;-71
2023/06/07 16:18:42;;;;;;;4.18;2.30;;;27.30;66.30;;;;;;10983158;32;20019;-72
2023/06/07 16:24:45;;;;;;;4.22;2.70;;;27.30;66.60;;;;;;10983228;32;20045;-71
2023/06/07 16:30:47;;;;;;;4.90;3.58;;;27.30;66.70;;;;;;10979728;32;20048;-73
2023/06/07 16:36:49;;;;;;;5.32;3.17;;;27.20;67.00;;;;;;10982916;32;20397;-73
2023/06/07 16:42:51;;;;;;;5.95;3.28;;;27.10;67.10;;;;;;10982936;32;20041;-73
2023/06/07 16:48:53;;;;;;;4.28;3.37;;;27.00;67.40;;;;;;10982779;32;20298;-73
2023/06/07 16:54:55;;;;;;;2.62;2.12;;;27.00;67.50;;;;;;10982576;32;20018;-73
2023/06/07 17:00:57;;;;;;;4.62;2.90;;;26.90;67.60;;;;;;10981293;32;20389;-74
2023/06/07 17:06:59;;;;;;;3.95;2.40;;;26.80;67.80;;;;;;10982121;32;20038;-73
2023/06/07 17:13:02;;;;;;;4.47;2.87;;;26.80;68.10;;;;;;10981530;32;20444;-74
2023/06/07 17:19:04;;;;;;;3.75;2.83;;;26.70;68.20;;;;;;10978961;32;20431;-73
2023/06/07 17:25:06;;;;;;;6.45;2.95;;;26.70;68.40;;;;;;10980260;32;20044;-73
2023/06/07 17:31:09;;;;;;;4.97;2.70;;;26.70;68.60;;;;;;10978489;32;20432;-74
2023/06/07 17:37:14;;;;;;;2.83;2.10;;;26.60;68.80;;;;;;10981102;32;20351;-73
2023/06/07 17:43:16;;;;;;;2.50;1.77;;;26.60;69.00;;;;;;10979220;32;20037;-73
2023/06/07 17:49:18;;;;;;;4.60;2.87;;;26.50;69.40;;;;;;10979547;32;20015;-73
2023/06/07 17:55:21;;;;;;;4.32;2.78;;;26.60;69.50;;;;;;10980272;32;20050;-73
2023/06/07 18:01:24;;;;;;;4.90;2.80;;;26.50;69.70;;;;;;10979640;32;20019;-73
2023/06/07 18:07:28;;;;;;;3.97;2.95;;;26.50;69.80;;;;;;10981216;32;20397;-73
2023/06/07 18:13:30;;;;;;;3.37;2.10;;;26.40;70.00;;;;;;10980512;32;20042;-73
2023/06/07 18:19:34;;;;;;;4.72;3.10;;;26.40;70.00;;;;;;10964591;32;20030;-73
2023/06/07 18:25:36;;;;;;;3.62;2.03;;;26.30;70.20;;;;;;10986675;32;20026;-73
2023/06/07 18:31:38;;;;;;;12.27;3.15;;;26.30;70.40;;;;;;10961351;32;20047;-73
2023/06/07 18:37:41;;;;;;;5.43;3.20;;;26.30;70.80;;;;;;10912253;32;20035;-73
2023/06/07 18:43:43;;;;;;;3.83;2.60;;;26.30;71.00;;;;;;10934580;32;20049;-73
2023/06/07 18:49:45;;;;;;;3.22;2.28;;;26.20;71.10;;;;;;10918218;32;20155;-73
2023/06/07 18:55:47;;;;;;;5.18;3.20;;;26.20;71.40;;;;;;10986671;32;20321;-73
2023/06/07 19:01:53;;;;;;;3.90;2.60;;;26.10;71.40;;;;;;10982554;32;20019;-73
2023/06/07 19:07:56;;;;;;;4.97;2.53;;;26.10;71.50;;;;;;10986487;32;20027;-73
2023/06/07 19:13:59;;;;;;;4.50;2.65;;;26.00;71.70;;;;;;10919178;32;20401;-73
2023/06/07 19:20:01;;;;;;;3.30;2.28;;;25.90;71.80;;;;;;10985856;32;20053;-73
2023/06/07 19:26:03;;;;;;;6.72;2.65;;;25.90;72.00;;;;;;10985628;32;20022;-73
2023/06/07 19:32:08;;;;;;;3.92;2.50;;;25.80;72.20;;;;;;10985638;32;20053;-73
2023/06/07 19:38:10;;;;;;;4.72;2.92;;;25.80;72.30;;;;;;10985651;32;20407;-73
2023/06/07 19:44:12;;;;;;;3.17;2.15;;;25.70;72.50;;;;;;10985604;32;20377;-73
2023/06/07 19:50:15;;;;;;;3.42;2.05;;;25.60;72.80;;;;;;10918681;32;20393;-73
2023/06/07 19:56:17;;;;;;;4.68;2.08;;;25.50;72.90;;;;;;10984218;32;20023;-73
2023/06/07 20:02:20;;;;;;;4.30;2.30;;;25.40;73.10;;;;;;10984662;32;20344;-73
2023/06/07 20:08:22;;;;;;;3.42;2.12;;;25.30;73.30;;;;;;10984417;32;20049;-73
2023/06/07 20:14:25;;;;;;;3.75;2.25;;;25.30;73.50;;;;;;10917340;32;20026;-73
2023/06/07 20:20:27;;;;;;;3.35;1.95;;;25.30;73.80;;;;;;10984014;32;20049;-73
2023/06/07 20:26:29;;;;;;;3.50;2.15;;;25.20;74.00;;;;;;10918225;32;20422;-73
2023/06/07 20:32:31;;;;;;;4.10;2.60;;;25.20;74.30;;;;;;10982916;32;20019;-72
2023/06/07 20:38:34;;;;;;;3.60;2.50;;;25.10;74.50;;;;;;10905288;32;20042;-73
2023/06/07 20:44:36;;;;;;;4.43;2.47;;;25.00;74.80;;;;;;10904567;32;20035;-73
2023/06/07 20:50:38;;;;;;;2.72;2.00;;;25.00;75.00;;;;;;10987510;32;20031;-73
2023/06/07 20:56:40;;;;;;;6.62;3.33;;;25.00;75.00;;;;;;11005765;32;20022;-73
2023/06/07 21:02:43;;;;;;;2.62;1.83;;;25.00;75.20;;;;;;11020410;32;20316;-73
2023/06/07 21:08:45;;;;;;;3.42;2.05;;;24.80;75.50;;;;;;11004395;32;20360;-73
2023/06/07 21:14:48;;;;;;;4.65;2.55;;;24.80;76.30;;;;;;11019651;32;20434;-73
2023/06/07 21:20:50;;;;;;;4.57;2.17;;;24.80;76.90;;;;;;11015610;32;20030;-73
2023/06/07 21:26:52;;;;;;;5.00;3.10;;;24.80;76.90;;;;;;11019038;32;20050;-73
2023/06/07 21:32:54;;;;;;;4.85;3.03;;;24.70;77.10;;;;;;11019312;32;20041;-73
2023/06/07 21:38:57;;;;;;;4.28;2.50;;;24.70;77.20;;;;;;11018824;32;20018;-73
2023/06/07 21:44:59;;;;;;;5.43;3.22;;;24.60;77.30;;;;;;11005750;32;20048;-73
2023/06/07 21:51:02;;;;;;;5.37;2.92;;;24.40;77.40;;;;;;11018574;32;20010;-73
2023/06/07 21:57:05;;;;;;;4.53;3.28;;;24.30;77.50;;;;;;11004784;32;20038;-73
2023/06/07 22:03:07;;;;;;;5.37;3.47;;;24.30;77.80;;;;;;11016936;32;20052;-75
2023/06/07 22:09:10;;;;;;;3.55;2.17;;;24.20;78.20;;;;;;11002782;32;20056;-73
2023/06/07 22:15:12;;;;;;;5.15;2.72;;;23.90;78.80;;;;;;11024057;32;20054;-74
2023/06/07 22:21:35;;;;;;;4.20;3.08;;;24.00;78.90;;;;;;11025238;32;20041;-73
2023/06/07 22:27:37;;;;;;;3.75;2.08;;;24.00;78.90;;;;;;11024664;32;20033;-73
2023/06/07 22:33:39;;;;;;;5.70;3.45;;;23.90;79.00;;;;;;11024638;32;20014;-73
2023/06/07 22:39:41;;;;;;;3.78;2.60;;;23.90;78.90;;;;;;11009826;32;20034;-73
2023/06/07 22:45:43;;;;;;;5.15;3.17;;;23.80;78.90;;;;;;11024360;32;20027;-73
2023/06/07 22:51:48;;;;;;;6.90;4.37;;;23.80;78.80;;;;;;11022310;32;20385;-73
2023/06/07 22:57:50;;;;;;;5.97;3.60;;;23.80;78.90;;;;;;11024451;32;20044;-73
2023/06/07 23:03:55;;;;;;;5.72;4.10;;;23.80;78.90;;;;;;11010072;32;20038;-73
2023/06/07 23:09:57;;;;;;;3.70;2.40;;;23.70;79.00;;;;;;11024673;32;20015;-73
2023/06/07 23:15:59;;;;;;;6.30;4.53;;;23.70;79.10;;;;;;11004772;32;20064;-73
2023/06/07 23:22:03;;;;;;;5.30;3.60;;;23.70;79.50;;;;;;11009117;32;20459;-73
2023/06/07 23:28:06;;;;;;;5.07;3.75;;;23.70;79.90;;;;;;10477110;32;16998301;-73
2023/06/07 23:34:07;;;;;;;6.20;4.28;;;23.60;80.40;;;;;;10984334;32;20049;-74
2023/06/07 23:40:11;;;;;;;6.40;4.40;;;23.50;80.30;;;;;;10985542;32;20026;-73
2023/06/07 23:46:13;;;;;;;7.60;4.78;;;23.40;80.40;;;;;;10984426;32;20380;-74
2023/06/07 23:52:16;;;;;;;8.20;4.85;;;23.40;80.30;;;;;;10981259;32;20061;-73
2023/06/07 23:58:18;;;;;;;6.05;4.93;;;23.40;80.40;;;;;;10980124;32;20019;-73
